Time;durP1;ratioP1;P1;durP2;ratioP2;P2;SDS_P1;SDS_P2;PMS_P1;PMS_P2;Temp;Humidity;BMP_temperature;BMP_pressure;BME280_temperature;BME280_humidity;BME280_pressure;Samples;Min_cycle;Max_cycle;Signal;HPM_P1;HPM_P2
2022/08/09 00:00:32;;;;;;;5.03;3.70;;;;;;;27.64;54.62;99460.53;4936326;29;20205;-64
2022/08/09 00:02:59;;;;;;;6.30;4.20;;;;;;;27.67;54.13;99459.91;4936629;29;20358;-65
2022/08/09 00:05:26;;;;;;;3.87;3.63;;;;;;;27.66;53.64;99455.56;4936726;29;20259;-64
2022/08/09 00:07:52;;;;;;;5.17;3.47;;;;;;;27.58;53.47;99459.03;4936224;29;20197;-64
2022/08/09 00:10:23;;;;;;;3.87;3.67;;;;;;;27.56;53.70;99455.81;4936200;29;20667;-64
2022/08/09 00:12:49;;;;;;;4.97;3.37;;;;;;;27.53;53.73;99451.78;4936161;29;20213;-64
2022/08/09 00:15:16;;;;;;;7.37;3.23;;;;;;;27.55;53.56;99456.91;4936312;29;20224;-64
2022/08/09 00:17:43;;;;;;;7.90;4.10;;;;;;;27.58;51.67;99462.56;4936258;29;20205;-64
2022/08/09 00:20:11;;;;;;;4.87;3.73;;;;;;;27.53;50.85;99456.41;4935981;29;20205;-64
2022/08/09 00:22:37;;;;;;;4.97;3.47;;;;;;;27.48;51.40;99456.53;4936291;29;20291;-64
2022/08/09 00:25:05;;;;;;;4.10;3.37;;;;;;;27.40;51.24;99447.13;4936167;29;20196;-64
2022/08/09 00:27:33;;;;;;;4.77;3.37;;;;;;;27.33;52.86;99448.69;4936075;29;20196;-64
2022/08/09 00:30:00;;;;;;;3.53;3.23;;;;;;;27.37;52.15;99452.41;4936052;29;20260;-63
2022/08/09 00:32:27;;;;;;;4.60;3.70;;;;;;;27.37;51.26;99447.78;4935672;29;20193;-64
2022/08/09 00:34:54;;;;;;;4.87;3.60;;;;;;;27.32;51.28;99452.53;4935680;29;20276;-64
2022/08/09 00:37:20;;;;;;;6.87;3.83;;;;;;;27.34;51.43;99450.28;4935671;29;20660;-64
2022/08/09 00:39:47;;;;;;;3.93;3.63;;;;;;;27.35;50.86;99449.16;4936490;29;20255;-64
2022/08/09 00:42:14;;;;;;;3.30;3.10;;;;;;;27.35;50.47;99451.91;4935614;29;20193;-65
2022/08/09 00:44:42;;;;;;;3.37;3.07;;;;;;;27.42;51.19;99452.28;4935587;29;20201;-64
2022/08/09 00:47:08;;;;;;;3.10;3.00;;;;;;;27.58;49.79;99453.56;4934955;29;20268;-64
2022/08/09 00:49:36;;;;;;;3.33;3.00;;;;;;;27.61;48.97;99461.16;4936037;29;20196;-64
2022/08/09 00:52:04;;;;;;;4.70;2.93;;;;;;;27.57;47.30;99465.59;4936439;29;20193;-64
2022/08/09 00:54:30;;;;;;;3.10;2.90;;;;;;;27.27;43.56;99471.75;4935704;29;20656;-64
2022/08/09 00:56:57;;;;;;;3.40;2.50;;;;;;;26.98;43.64;99463.03;4935496;29;20683;-64
2022/08/09 00:59:24;;;;;;;4.57;2.40;;;;;;;26.82;43.41;99459.00;4936293;29;20225;-64
2022/08/09 01:01:52;;;;;;;4.10;2.77;;;;;;;26.66;43.88;99471.31;4935169;29;20193;-64
2022/08/09 01:04:25;;;;;;;3.10;2.50;;;;;;;26.62;45.62;99459.41;4935220;29;20196;-64
2022/08/09 01:06:57;;;;;;;2.87;2.67;;;;;;;26.56;46.14;99461.38;4935824;29;20276;-64
2022/08/09 01:09:31;;;;;;;3.30;3.10;;;;;;;26.58;45.55;99458.38;4934875;29;20189;-64
2022/08/09 01:12:02;;;;;;;2.80;2.50;;;;;;;26.61;46.66;99463.19;4935917;29;20252;-64
2022/08/09 01:14:35;;;;;;;4.77;3.03;;;;;;;26.71;45.17;99458.38;4935865;29;20260;-64
2022/08/09 01:17:09;;;;;;;2.97;2.80;;;;;;;26.57;44.99;99462.16;4935296;29;20220;-64
2022/08/09 01:19:50;;;;;;;3.87;2.90;;;;;;;26.45;45.45;99454.47;4935439;29;20251;-64
2022/08/09 01:22:46;;;;;;;2.77;2.63;;;;;;;26.72;47.34;99453.75;4935027;29;20621;-64
2022/08/09 01:25:42;;;;;;;2.57;2.37;;;;;;;26.84;46.17;99456.78;4935824;29;20193;-64
2022/08/09 01:28:12;;;;;;;3.17;2.87;;;;;;;26.89;44.74;99462.13;4935242;29;20256;-64
2022/08/09 01:30:42;;;;;;;3.27;3.07;;;;;;;26.84;44.71;99467.69;4934807;29;20204;-63
2022/08/09 01:33:11;;;;;;;2.47;2.27;;;;;;;26.80;44.99;99453.03;4935145;29;20568;-64
2022/08/09 01:35:45;;;;;;;3.20;2.90;;;;;;;26.85;44.81;99459.19;4934778;29;20700;-64
2022/08/09 01:38:16;;;;;;;9.70;3.13;;;;;;;26.90;44.75;99455.56;4935419;29;20184;-64
2022/08/09 01:40:48;;;;;;;5.70;2.90;;;;;;;26.73;44.13;99463.53;4935643;29;20544;-64
2022/08/09 01:43:18;;;;;;;3.37;3.13;;;;;;;26.62;44.99;99459.41;4934693;29;20645;-64
2022/08/09 01:45:47;;;;;;;3.30;2.90;;;;;;;26.58;45.82;99463.81;4935280;29;20617;-64
2022/08/09 01:48:15;;;;;;;5.30;3.27;;;;;;;26.59;46.31;99460.00;4934753;29;20753;-65
2022/08/09 01:50:44;;;;;;;3.50;3.07;;;;;;;26.62;46.74;99454.72;4935004;29;20204;-64
2022/08/09 01:53:12;;;;;;;6.13;3.50;;;;;;;26.68;47.23;99458.16;4934658;29;20252;-64
2022/08/09 01:55:39;;;;;;;5.40;3.80;;;;;;;26.59;48.37;99454.53;4935083;29;20228;-64
2022/08/09 01:58:07;;;;;;;3.67;3.43;;;;;;;26.50;49.38;99445.41;4934825;29;20237;-64
2022/08/09 02:00:35;;;;;;;3.77;3.57;;;;;;;26.43;50.05;99448.53;4938881;29;20247;-64
2022/08/09 02:03:05;;;;;;;5.97;3.87;;;;;;;26.42;50.58;99444.19;4938515;29;20192;-64
2022/08/09 02:05:33;;;;;;;4.17;3.73;;;;;;;26.34;50.90;99435.91;4938476;29;20200;-64
2022/08/09 02:08:04;;;;;;;4.50;3.33;;;;;;;26.22;51.51;99435.56;4938686;29;20252;-64
2022/08/09 02:10:34;;;;;;;3.73;3.47;;;;;;;26.33;50.84;99439.75;4938345;29;20197;-64
2022/08/09 02:13:04;;;;;;;3.63;3.33;;;;;;;26.51;50.66;99445.13;4938306;29;20623;-64
2022/08/09 02:15:33;;;;;;;7.40;3.47;;;;;;;26.47;51.29;99429.66;4939072;29;20209;-64
2022/08/09 02:18:03;;;;;;;4.50;4.03;;;;;;;26.48;51.91;99442.16;4938772;29;20252;-64
2022/08/09 02:20:31;;;;;;;6.53;4.17;;;;;;;26.47;51.62;99435.94;4938488;29;20205;-64
2022/08/09 02:23:05;;;;;;;4.33;3.67;;;;;;;26.43;51.58;99431.38;4938459;29;20201;-64
2022/08/09 02:25:35;;;;;;;4.67;4.00;;;;;;;26.45;51.99;99431.91;4938709;29;20283;-64
2022/08/09 02:28:06;;;;;;;5.90;4.37;;;;;;;26.43;52.33;99440.38;4939144;29;20196;-64
2022/08/09 02:30:39;;;;;;;5.93;4.73;;;;;;;26.32;52.58;99438.09;4939180;29;20185;-64
2022/08/09 02:33:10;;;;;;;5.40;4.17;;;;;;;26.07;53.06;99441.28;4938800;29;20197;-64
2022/08/09 02:35:37;;;;;;;3.93;3.63;;;;;;;26.00;53.96;99444.38;4939023;29;20216;-64
2022/08/09 02:38:06;;;;;;;6.63;4.00;;;;;;;25.88;52.95;99444.00;4938132;29;20272;-64
2022/08/09 02:40:36;;;;;;;3.70;3.40;;;;;;;25.63;53.97;99440.88;4937965;29;20558;-64
2022/08/09 02:43:04;;;;;;;3.97;3.77;;;;;;;25.73;54.34;99438.81;4938582;29;20185;-64
2022/08/09 02:45:34;;;;;;;5.37;3.57;;;;;;;25.73;52.96;99440.72;4937596;29;20251;-64
2022/08/09 02:48:07;;;;;;;4.20;3.80;;;;;;;25.90;53.13;99443.69;4937573;29;20621;-64
2022/08/09 02:50:39;;;;;;;3.00;2.80;;;;;;;25.80;51.66;99446.59;4938108;29;20188;-64
2022/08/09 02:53:10;;;;;;;3.57;3.27;;;;;;;25.33;52.09;99444.84;4937653;29;20247;-65
2022/08/09 02:55:40;;;;;;;3.17;2.90;;;;;;;25.10;53.45;99448.38;4938658;29;20216;-65
2022/08/09 02:58:09;;;;;;;4.20;3.10;;;;;;;24.95;54.33;99441.22;4938574;29;20582;-65
2022/08/09 03:00:37;;;;;;;3.23;3.03;;;;;;;24.94;53.20;99445.03;4937392;29;20634;-65
2022/08/09 03:03:05;;;;;;;4.57;3.10;;;;;;;24.92;53.51;99441.78;4937427;29;20260;-65
2022/08/09 03:05:33;;;;;;;3.40;3.13;;;;;;;25.06;55.21;99447.34;4937309;29;20263;-65
2022/08/09 03:08:02;;;;;;;3.40;3.20;;;;;;;25.45;53.10;99441.69;4937552;29;20204;-65
2022/08/09 03:10:30;;;;;;;7.70;3.03;;;;;;;25.59;52.24;99448.03;4937465;29;20204;-64
2022/08/09 03:12:59;;;;;;;3.23;3.03;;;;;;;25.77;51.13;99452.63;4937240;29;20196;-64
2022/08/09 03:15:26;;;;;;;2.90;2.80;;;;;;;25.93;50.17;99448.56;4937134;29;20197;-65
2022/08/09 03:17:53;;;;;;;3.40;3.10;;;;;;;26.08;49.47;99453.78;4937070;29;20193;-65
2022/08/09 03:20:21;;;;;;;4.73;3.23;;;;;;;26.17;49.04;99452.00;4937048;29;20744;-64
2022/08/09 03:22:49;;;;;;;3.53;3.23;;;;;;;26.27;48.80;99457.25;4936991;29;20561;-64
2022/08/09 03:25:17;;;;;;;3.87;3.17;;;;;;;26.35;48.60;99457.41;4937567;29;20196;-64
2022/08/09 03:27:48;;;;;;;4.17;2.97;;;;;;;26.35;48.52;99459.31;4936812;29;20201;-64
2022/08/09 03:30:15;;;;;;;3.50;3.20;;;;;;;26.38;48.65;99464.16;4937770;29;20189;-64
2022/08/09 03:32:42;;;;;;;3.13;2.77;;;;;;;26.33;48.19;99461.53;4936767;29;20252;-64
2022/08/09 03:35:11;;;;;;;3.67;3.33;;;;;;;26.35;48.31;99456.59;4937275;29;20221;-64
2022/08/09 03:37:38;;;;;;;7.53;3.60;;;;;;;26.34;47.92;99453.03;4936735;29;20224;-64
2022/08/09 03:40:06;;;;;;;5.50;3.20;;;;;;;26.37;48.37;99451.66;4918326;29;20257;-64
2022/08/09 03:42:34;;;;;;;3.70;3.37;;;;;;;26.41;47.56;99460.84;4917671;29;20193;-64
2022/08/09 03:45:00;;;;;;;3.97;3.57;;;;;;;26.40;47.15;99451.84;4917654;29;20570;-64
2022/08/09 03:47:27;;;;;;;4.30;3.80;;;;;;;26.19;47.68;99455.22;4917591;29;20256;-64
2022/08/09 03:49:56;;;;;;;3.93;3.23;;;;;;;25.89;47.81;99444.81;4918360;29;20551;-64
2022/08/09 03:52:23;;;;;;;3.63;3.33;;;;;;;25.70;48.10;99447.56;4917565;29;20200;-64
2022/08/09 03:54:52;;;;;;;5.37;3.17;;;;;;;25.55;48.85;99450.50;4917768;29;20205;-64
2022/08/09 03:57:21;;;;;;;3.80;3.10;;;;;;;25.44;49.08;99453.66;4918089;29;20225;-65
2022/08/09 03:59:51;;;;;;;2.90;2.80;;;;;;;25.50;48.89;99453.28;4918281;29;20253;-64
2022/08/09 04:02:19;;;;;;;2.93;2.73;;;;;;;25.61;48.55;99443.06;4917216;29;20724;-64
2022/08/09 04:04:46;;;;;;;3.23;2.93;;;;;;;25.88;48.08;99448.66;4917716;29;20197;-64
2022/08/09 04:07:13;;;;;;;4.23;3.00;;;;;;;26.44;47.54;99454.78;4917542;29;20200;-64
2022/08/09 04:09:40;;;;;;;4.20;3.20;;;;;;;27.09;45.98;99458.97;4917223;29;20658;-63
2022/08/09 04:12:33;;;;;;;5.00;3.43;;;;;;;27.74;43.72;99457.56;4917184;29;20257;-63
2022/08/09 04:15:01;;;;;;;3.50;3.20;;;;;;;28.41;40.91;99459.22;4917470;29;20205;-63
2022/08/09 04:17:28;;;;;;;6.37;3.63;;;;;;;28.92;39.67;99459.47;4916951;29;20280;-63
2022/08/09 04:19:54;;;;;;;4.60;2.93;;;;;;;29.23;39.67;99455.56;4917049;29;20678;-63
2022/08/09 04:22:21;;;;;;;2.67;2.47;;;;;;;29.73;38.86;99455.97;4916486;29;20201;-63
2022/08/09 04:24:48;;;;;;;4.80;3.27;;;;;;;30.29;37.29;99466.72;4917841;29;20196;-63
2022/08/09 04:27:15;;;;;;;5.60;2.80;;;;;;;30.75;36.20;99446.78;4916876;29;20721;-63
2022/08/09 04:29:41;;;;;;;3.70;2.90;;;;;;;31.08;35.01;99445.00;4917039;29;20269;-63
2022/08/09 04:32:09;;;;;;;5.00;3.30;;;;;;;31.38;34.01;99441.13;4916803;29;20201;-64
2022/08/09 04:34:36;;;;;;;3.83;2.83;;;;;;;31.74;33.35;99441.34;4917004;29;20197;-63
2022/08/09 04:37:03;;;;;;;6.80;3.50;;;;;;;32.06;32.36;99444.13;4917462;29;20232;-62
2022/08/09 04:39:29;;;;;;;3.53;2.80;;;;;;;31.92;33.41;99432.63;4916642;29;20634;-63
2022/08/09 04:41:56;;;;;;;3.63;2.90;;;;;;;32.03;32.54;99433.84;4916836;29;20256;-63
2022/08/09 04:44:23;;;;;;;3.43;3.20;;;;;;;32.16;32.21;99434.66;4916468;29;20257;-63
2022/08/09 04:46:50;;;;;;;2.63;2.53;;;;;;;32.24;32.56;99434.59;4917310;29;20236;-63
2022/08/09 04:49:18;;;;;;;3.40;2.90;;;;;;;32.38;32.09;99440.59;4917058;29;20198;-63
2022/08/09 04:51:45;;;;;;;3.07;2.87;;;;;;;32.40;31.33;99445.75;4916323;29;20673;-64
2022/08/09 04:54:12;;;;;;;4.77;4.23;;;;;;;32.68;31.26;99458.56;4916354;29;20197;-64
2022/08/09 04:56:39;;;;;;;8.50;2.97;;;;;;;32.86;31.50;99457.22;4916654;29;20221;-64
2022/08/09 04:59:05;;;;;;;18.63;3.97;;;;;;;33.03;31.54;99459.72;4916520;29;20236;-64
2022/08/09 05:01:32;;;;;;;3.83;2.80;;;;;;;33.27;30.82;99456.16;4916980;29;20201;-64
2022/08/09 05:03:59;;;;;;;7.03;3.20;;;;;;;33.62;30.24;99456.47;4916455;29;20197;-65
2022/08/09 05:06:27;;;;;;;6.10;3.60;;;;;;;33.90;30.08;99458.16;4916389;29;20621;-65
2022/08/09 05:08:54;;;;;;;4.63;3.00;;;;;;;33.92;30.15;99455.81;4917209;29;20569;-65
2022/08/09 05:11:22;;;;;;;5.10;3.53;;;;;;;34.38;29.46;99448.88;4916115;29;20205;-64
2022/08/09 05:13:48;;;;;;;8.20;3.73;;;;;;;34.61;29.15;99450.66;4916302;29;20201;-65
2022/08/09 05:16:15;;;;;;;11.82;3.38;;;;;;;34.12;29.82;99443.78;4928792;29;20204;-65
2022/08/09 05:18:42;;;;;;;14.57;4.10;;;;;;;34.07;30.11;99443.25;4934925;29;20228;-65
2022/08/09 05:21:08;;;;;;;7.67;4.53;;;;;;;34.17;29.69;99451.03;4934839;29;20740;-65
2022/08/09 05:23:37;;;;;;;6.55;4.18;;;;;;;34.43;29.59;99448.59;4934776;29;20669;-65
2022/08/09 05:26:03;;;;;;;8.27;4.33;;;;;;;34.58;29.44;99447.81;4934763;29;20201;-65
2022/08/09 05:28:30;;;;;;;4.47;3.50;;;;;;;34.68;29.35;99444.53;4935298;29;20580;-68
2022/08/09 05:30:57;;;;;;;3.53;3.22;;;;;;;34.76;29.05;99451.81;4934849;29;20201;-65
2022/08/09 05:33:24;;;;;;;14.55;4.80;;;;;;;34.71;29.69;99449.34;4938056;29;20248;-65
2022/08/09 05:35:50;;;;;;;5.43;4.30;;;;;;;34.94;29.16;99447.59;4951411;29;20259;-64
2022/08/09 05:38:17;;;;;;;5.32;4.15;;;;;;;34.74;29.17;99446.66;4934534;29;20598;-65
2022/08/09 05:40:45;;;;;;;8.85;5.13;;;;;;;34.63;29.13;99447.56;4939154;29;20196;-65
2022/08/09 05:43:12;;;;;;;7.55;4.28;;;;;;;34.67;29.14;99448.44;4953710;29;20196;-67
2022/08/09 05:45:38;;;;;;;7.25;4.15;;;;;;;34.58;29.62;99445.06;4953526;29;20258;-68
2022/08/09 05:48:06;;;;;;;16.25;4.15;;;;;;;34.55;29.53;99451.28;4934498;29;20208;-67
2022/08/09 05:50:32;;;;;;;4.03;3.65;;;;;;;34.52;29.52;99447.28;4934745;29;20256;-67
2022/08/09 05:52:59;;;;;;;7.32;4.20;;;;;;;34.69;28.66;99451.63;4934573;29;20268;-67
2022/08/09 05:55:26;;;;;;;4.15;3.85;;;;;;;34.79;29.17;99453.88;4934868;29;20263;-67
2022/08/09 05:57:54;;;;;;;3.70;3.38;;;;;;;34.74;29.30;99448.63;4934327;29;20295;-68
2022/08/09 06:00:21;;;;;;;7.65;4.10;;;;;;;35.17;28.44;99454.88;4934915;29;20592;-69
2022/08/09 06:02:47;;;;;;;6.25;4.00;;;;;;;35.21;28.32;99449.41;4934785;29;20260;-68
2022/08/09 06:05:14;;;;;;;4.25;3.88;;;;;;;35.15;28.48;99445.34;4934464;29;20201;-68
2022/08/09 06:07:41;;;;;;;4.32;3.90;;;;;;;35.18;28.75;99450.13;4949833;29;20208;-68
2022/08/09 06:10:09;;;;;;;14.43;4.35;;;;;;;35.42;28.61;99447.16;4953457;29;20752;-68
2022/08/09 06:12:36;;;;;;;8.30;3.67;;;;;;;35.41;28.47;99446.38;4955116;29;20200;-68
2022/08/09 06:15:05;;;;;;;7.55;3.58;;;;;;;35.70;27.70;99448.59;4954118;29;20200;-68
2022/08/09 06:17:32;;;;;;;8.13;3.80;;;;;;;36.01;28.08;99459.53;4953286;29;20774;-68
2022/08/09 06:19:58;;;;;;;10.10;3.40;;;;;;;35.76;27.74;99451.91;4954060;29;20623;-68
2022/08/09 06:22:25;;;;;;;8.90;3.72;;;;;;;35.89;27.64;99453.34;4953352;29;20255;-68
2022/08/09 06:24:52;;;;;;;9.75;4.03;;;;;;;35.68;27.44;99441.81;4953450;29;20196;-68
2022/08/09 06:27:19;;;;;;;6.68;3.50;;;;;;;35.14;28.27;99446.47;4954542;29;20196;-68
2022/08/09 06:29:45;;;;;;;7.05;3.38;;;;;;;34.87;27.51;99444.66;4953208;29;20548;-68
2022/08/09 06:32:13;;;;;;;9.80;3.72;;;;;;;34.83;27.57;99443.75;4953676;29;20192;-68
2022/08/09 06:34:40;;;;;;;6.93;3.72;;;;;;;35.10;27.57;99442.81;4953647;29;20191;-68
2022/08/09 06:37:07;;;;;;;7.53;3.30;;;;;;;35.02;27.83;99443.84;4953309;29;20254;-68
2022/08/09 06:39:34;;;;;;;6.28;3.50;;;;;;;35.29;27.62;99438.22;4952986;29;20224;-68
2022/08/09 06:42:00;;;;;;;6.90;5.38;;;;;;;35.21;26.93;99441.13;4936721;29;20268;-68
2022/08/09 06:44:27;;;;;;;9.38;6.30;;;;;;;35.00;26.66;99432.34;4934612;29;20252;-68
2022/08/09 06:46:54;;;;;;;6.78;5.80;;;;;;;35.05;27.11;99437.59;4938046;29;20204;-68
2022/08/09 06:49:22;;;;;;;9.32;5.30;;;;;;;35.14;26.97;99438.19;4937460;29;20256;-68
2022/08/09 06:51:49;;;;;;;9.45;5.82;;;;;;;34.53;27.28;99426.81;4937486;29;20284;-68
2022/08/09 06:54:15;;;;;;;7.82;5.78;;;;;;;34.03;27.59;99432.13;4937895;29;20204;-68
2022/08/09 06:56:42;;;;;;;8.27;5.57;;;;;;;34.02;27.50;99429.72;4937369;29;20201;-67
2022/08/09 06:59:09;;;;;;;9.05;5.72;;;;;;;33.57;28.24;99426.41;4937568;29;20229;-67
2022/08/09 07:01:35;;;;;;;6.25;5.70;;;;;;;33.81;28.07;99427.16;4937231;29;20268;-67
2022/08/09 07:04:02;;;;;;;10.43;5.53;;;;;;;34.11;28.15;99422.06;4937161;29;20680;-68
2022/08/09 07:06:30;;;;;;;14.43;5.90;;;;;;;34.50;28.11;99421.19;4937662;29;20196;-67
2022/08/09 07:08:57;;;;;;;8.70;6.05;;;;;;;34.99;26.75;99423.25;4937514;29;20251;-68
2022/08/09 07:11:24;;;;;;;7.55;5.20;;;;;;;35.00;27.18;99424.88;4937599;29;20629;-68
2022/08/09 07:13:51;;;;;;;6.90;6.00;;;;;;;35.07;26.86;99424.22;4937513;29;20193;-68
2022/08/09 07:16:17;;;;;;;10.77;5.28;;;;;;;35.26;26.31;99422.31;4938166;29;20244;-68
2022/08/09 07:18:44;;;;;;;6.50;5.55;;;;;;;35.30;26.05;99433.47;4937211;29;20224;-67
2022/08/09 07:21:11;;;;;;;16.55;5.60;;;;;;;35.39;26.22;99425.78;4937077;29;20200;-68
2022/08/09 07:23:40;;;;;;;10.50;4.57;;;;;;;35.55;25.81;99434.81;4937202;29;20205;-68
2022/08/09 07:26:07;;;;;;;4.90;4.50;;;;;;;35.62;25.99;99427.47;4937001;29;20197;-68
2022/08/09 07:28:34;;;;;;;6.63;4.93;;;;;;;35.42;26.31;99419.53;4937156;29;20334;-68
2022/08/09 07:31:03;;;;;;;9.80;4.95;;;;;;;35.48;25.73;99429.16;4937359;29;20272;-68
2022/08/09 07:33:30;;;;;;;8.10;5.15;;;;;;;35.18;26.08;99436.31;4937275;29;20204;-68
2022/08/09 07:35:56;;;;;;;7.88;4.72;;;;;;;35.19;26.25;99433.19;4936925;29;20192;-68
2022/08/09 07:38:23;;;;;;;7.53;4.90;;;;;;;35.41;26.05;99440.03;4937549;29;20220;-67
2022/08/09 07:40:52;;;;;;;8.00;4.70;;;;;;;36.03;25.08;99437.03;4944462;29;20200;-68
2022/08/09 07:43:19;;;;;;;6.28;4.47;;;;;;;36.36;24.76;99440.88;4956084;29;20192;-68
2022/08/09 07:45:46;;;;;;;8.55;4.70;;;;;;;36.89;24.65;99442.63;4955887;29;20267;-69
2022/08/09 07:48:13;;;;;;;7.38;4.50;;;;;;;37.01;23.86;99441.63;4955761;29;20199;-68
2022/08/09 07:50:42;;;;;;;12.18;4.95;;;;;;;37.04;23.84;99446.44;4955968;29;20254;-68
2022/08/09 07:53:08;;;;;;;10.95;4.43;;;;;;;36.94;23.69;99442.31;4955933;29;20203;-69
2022/08/09 07:55:35;;;;;;;6.47;4.28;;;;;;;37.50;22.92;99441.56;4955333;28;20255;-68
2022/08/09 07:58:04;;;;;;;10.35;4.38;;;;;;;37.59;23.67;99445.69;4954983;29;20602;-68
2022/08/09 08:00:31;;;;;;;6.97;4.43;;;;;;;38.00;22.67;99438.31;4955734;29;20287;-68
2022/08/09 08:02:58;;;;;;;7.15;4.05;;;;;;;38.00;22.57;99432.75;4955268;29;20582;-69
2022/08/09 08:05:25;;;;;;;14.82;4.53;;;;;;;38.20;21.77;99437.75;4955319;29;20750;-68
2022/08/09 08:07:53;;;;;;;7.03;2.88;;;;;;;38.57;21.19;99438.56;4956157;29;20203;-69
2022/08/09 08:10:21;;;;;;;4.43;3.45;;;;;;;38.92;20.84;99441.69;4955182;29;20196;-68
2022/08/09 08:12:48;;;;;;;6.00;3.58;;;;;;;39.26;20.67;99434.75;4955832;29;20250;-69
2022/08/09 08:15:19;;;;;;;6.45;3.15;;;;;;;39.38;19.94;99431.69;4955012;29;20730;-68
2022/08/09 08:17:50;;;;;;;3.63;2.60;;;;;;;39.63;18.51;99435.41;4955223;29;20260;-69
2022/08/09 08:20:17;;;;;;;6.07;2.30;;;;;;;39.58;18.94;99430.22;4955075;29;20247;-68
2022/08/09 08:22:44;;;;;;;10.07;3.50;;;;;;;39.79;19.43;99429.53;4955050;29;20283;-70
2022/08/09 08:25:11;;;;;;;11.60;3.50;;;;;;;39.93;18.45;99427.59;4955013;29;20623;-70
2022/08/09 08:27:37;;;;;;;2.70;2.50;;;;;;;39.48;18.81;99419.03;4955418;29;20262;-68
2022/08/09 08:30:06;;;;;;;3.30;3.00;;;;;;;39.11;19.18;99421.16;4955228;29;20227;-68
2022/08/09 08:32:34;;;;;;;4.90;2.75;;;;;;;39.21;19.51;99415.66;4955091;29;20263;-68
2022/08/09 08:35:01;;;;;;;3.17;2.97;;;;;;;39.33;19.18;99418.16;4955155;29;20192;-69
2022/08/09 08:37:28;;;;;;;2.55;2.42;;;;;;;39.50;18.44;99428.59;4954830;29;20671;-68
2022/08/09 08:39:55;;;;;;;8.05;3.10;;;;;;;39.60;17.96;99416.69;4954719;29;20204;-69
2022/08/09 08:42:22;;;;;;;11.82;3.25;;;;;;;39.65;18.64;99419.13;4935614;29;20656;-69
2022/08/09 08:44:56;;;;;;;6.45;2.95;;;;;;;39.68;18.50;99407.19;4935922;29;20193;-68
2022/08/09 08:47:23;;;;;;;13.00;3.33;;;;;;;39.77;18.52;99406.88;4937011;29;20197;-68
2022/08/09 08:49:51;;;;;;;10.20;3.22;;;;;;;39.83;18.57;99408.88;4935394;29;20208;-69
2022/08/09 08:52:19;;;;;;;3.13;2.67;;;;;;;39.96;18.22;99400.94;4935416;29;20326;-68
2022/08/09 08:54:48;;;;;;;4.60;2.90;;;;;;;40.09;18.73;99383.50;4935060;29;20208;-68
2022/08/09 08:57:15;;;;;;;5.60;3.00;;;;;;;39.92;18.97;99395.38;4935191;29;20271;-65
2022/08/09 08:59:42;;;;;;;5.43;2.58;;;;;;;39.85;18.25;99395.34;4934735;29;20197;-65
2022/08/09 09:02:20;;;;;;;8.68;2.90;;;;;;;39.90;18.21;99392.22;4935536;29;20201;-65
2022/08/09 09:04:47;;;;;;;4.20;2.75;;;;;;;40.03;17.64;99385.09;4934706;29;20184;-65
2022/08/09 09:07:16;;;;;;;5.85;2.83;;;;;;;40.15;18.03;99390.28;4934219;29;20193;-65
2022/08/09 09:09:46;;;;;;;3.03;2.83;;;;;;;40.16;17.71;99389.09;4934549;29;20209;-66
2022/08/09 09:12:15;;;;;;;2.42;2.20;;;;;;;40.13;17.68;99384.31;4934494;29;20280;-65
2022/08/09 09:14:42;;;;;;;5.93;2.78;;;;;;;40.30;17.58;99389.13;4934589;29;20592;-66
2022/08/09 09:17:09;;;;;;;2.95;2.65;;;;;;;40.39;17.68;99392.34;4934538;29;20192;-66
2022/08/09 09:19:36;;;;;;;2.90;2.70;;;;;;;40.38;16.77;99376.03;4934109;29;20232;-66
2022/08/09 09:22:05;;;;;;;4.55;2.75;;;;;;;40.33;16.87;99377.19;4934146;29;20208;-66
2022/08/09 09:24:37;;;;;;;5.90;2.80;;;;;;;40.29;16.43;99365.25;4934497;29;20268;-65
2022/08/09 09:27:05;;;;;;;3.50;3.20;;;;;;;40.30;16.70;99377.22;4934500;29;20271;-65
2022/08/09 09:29:34;;;;;;;3.22;2.20;;;;;;;40.41;16.28;99367.66;4934493;29;20291;-65
2022/08/09 09:32:02;;;;;;;7.07;2.40;;;;;;;40.46;16.59;99360.91;4932961;29;20263;-66
2022/08/09 09:34:29;;;;;;;6.05;2.65;;;;;;;40.58;16.43;99355.72;4934357;29;20193;-65
2022/08/09 09:36:57;;;;;;;5.60;2.40;;;;;;;40.70;16.52;99358.13;4933974;29;20197;-66
2022/08/09 09:39:24;;;;;;;3.35;2.92;;;;;;;40.76;16.22;99359.34;4950153;29;20687;-64
2022/08/09 09:41:52;;;;;;;2.60;2.40;;;;;;;40.73;16.05;99356.53;4937750;29;20200;-66
2022/08/09 09:44:24;;;;;;;2.45;2.25;;;;;;;40.28;15.99;99357.31;4934369;29;20196;-66
2022/08/09 09:46:56;;;;;;;3.83;2.50;;;;;;;40.25;16.57;99356.13;4934465;29;20216;-66
2022/08/09 09:49:24;;;;;;;3.00;2.80;;;;;;;39.87;16.93;99353.22;4935144;29;20284;-66
2022/08/09 09:52:01;;;;;;;4.55;2.53;;;;;;;39.37;17.27;99352.25;4933761;29;20248;-64
2022/08/09 09:54:35;;;;;;;2.83;2.55;;;;;;;39.33;17.12;99340.31;4933854;29;20198;-64
2022/08/09 09:59:43;;;;;;;3.63;2.75;;;;;;;39.48;17.21;99336.38;5063950;27;1970681;-63
2022/08/09 10:02:10;;;;;;;17.05;2.75;;;;;;;39.33;16.47;99345.88;5109979;28;20193;-66
2022/08/09 10:04:38;;;;;;;3.28;2.08;;;;;;;39.17;16.77;99334.25;5110321;28;20187;-67
2022/08/09 10:07:05;;;;;;;4.30;2.22;;;;;;;38.86;16.64;99332.03;5110091;28;20186;-66
2022/08/09 10:09:47;;;;;;;2.78;1.60;;;;;;;38.82;16.85;99336.00;5109644;28;20666;-67
2022/08/09 10:12:23;;;;;;;9.40;2.30;;;;;;;38.50;16.44;99334.97;5110050;28;20205;-65
2022/08/09 10:14:52;;;;;;;5.90;1.50;;;;;;;38.63;16.06;99328.72;5110615;28;20182;-66
2022/08/09 10:17:20;;;;;;;6.43;1.50;;;;;;;38.72;15.90;99337.50;5110058;28;20214;-70
2022/08/09 10:19:47;;;;;;;2.25;1.52;;;;;;;38.77;15.52;99331.59;5110593;28;20206;-69
2022/08/09 10:22:14;;;;;;;5.28;1.92;;;;;;;38.38;15.89;99338.00;5109310;28;20255;-66
2022/08/09 10:24:41;;;;;;;8.85;2.10;;;;;;;38.26;16.33;99328.00;5109447;28;20194;-66
2022/08/09 10:27:08;;;;;;;4.32;2.15;;;;;;;38.29;15.98;99338.31;5109372;28;20220;-66
2022/08/09 10:29:36;;;;;;;6.72;1.73;;;;;;;38.47;15.95;99332.94;5109596;28;20642;-66
2022/08/09 10:32:04;;;;;;;3.25;2.15;;;;;;;38.44;15.91;99314.22;5109767;28;20198;-67
2022/08/09 10:34:32;;;;;;;1.98;1.80;;;;;;;38.18;16.11;99337.44;5109371;28;20263;-69
2022/08/09 10:36:59;;;;;;;3.22;2.15;;;;;;;37.97;16.67;99334.44;5109400;28;20240;-69
2022/08/09 10:39:27;;;;;;;2.60;2.40;;;;;;;37.90;16.81;99328.78;5108953;28;20710;-68
2022/08/09 10:41:54;;;;;;;2.90;2.72;;;;;;;37.63;17.38;99330.06;5109036;28;20195;-70
2022/08/09 10:44:22;;;;;;;4.10;2.22;;;;;;;37.15;18.31;99347.66;5109300;28;20187;-71
2022/08/09 10:47:07;;;;;;;3.70;2.40;;;;;;;36.88;19.12;99332.22;5108857;28;20240;-67
2022/08/09 10:49:46;;;;;;;4.10;2.60;;;;;;;36.59;19.43;99328.16;5108850;28;20579;-68
2022/08/09 10:52:29;;;;;;;2.60;2.35;;;;;;;36.57;19.27;99321.41;5109544;28;20240;-67
2022/08/09 10:54:56;;;;;;;6.90;2.45;;;;;;;36.70;19.72;99323.63;5108695;28;20187;-67
2022/08/09 10:57:35;;;;;;;5.35;2.67;;;;;;;36.81;19.41;99321.00;5108438;28;20255;-68
2022/08/09 11:00:37;;;;;;;3.97;2.20;;;;;;;36.78;19.24;99330.06;5108770;28;20646;-71
2022/08/09 11:03:18;;;;;;;2.42;2.22;;;;;;;36.54;19.27;99313.88;5107702;28;20252;-68
2022/08/09 11:06:15;;;;;;;4.55;2.30;;;;;;;36.36;20.45;99315.53;5108788;28;20614;-68
2022/08/09 11:08:44;;;;;;;4.45;2.50;;;;;;;36.02;20.99;99309.00;5108487;28;20619;-68
2022/08/09 11:11:11;;;;;;;2.25;2.05;;;;;;;35.78;20.23;99314.06;5094724;28;20248;-68
2022/08/09 11:13:38;;;;;;;2.25;2.00;;;;;;;35.62;20.80;99313.34;5094945;28;20297;-67
2022/08/09 11:16:36;;;;;;;3.80;2.30;;;;;;;35.82;20.27;99318.53;5095190;28;20191;-68
2022/08/09 11:19:05;;;;;;;4.13;2.55;;;;;;;35.77;19.82;99310.50;5094962;28;20343;-68
2022/08/09 11:21:55;;;;;;;2.97;2.25;;;;;;;35.87;19.70;99314.63;5094599;28;20258;-68
2022/08/09 11:24:23;;;;;;;3.58;2.30;;;;;;;36.00;20.17;99307.75;5094705;28;20274;-68
2022/08/09 11:26:50;;;;;;;4.10;3.00;;;;;;;36.14;20.25;99313.56;5095116;28;20623;-67
2022/08/09 11:29:52;;;;;;;4.10;2.92;;;;;;;36.29;20.50;99309.91;5095166;28;20203;-69
2022/08/09 11:32:44;;;;;;;4.65;3.20;;;;;;;36.23;20.83;99308.59;5094629;28;20187;-68
2022/08/09 11:35:20;;;;;;;4.45;2.95;;;;;;;36.37;20.86;99306.06;5094881;28;20270;-68
2022/08/09 11:37:49;;;;;;;3.33;2.90;;;;;;;36.38;21.19;99307.66;5094661;28;20252;-67
2022/08/09 11:40:28;;;;;;;5.13;2.85;;;;;;;36.49;20.58;99312.19;5094226;28;20649;-76
2022/08/09 11:42:57;;;;;;;3.38;3.08;;;;;;;36.36;20.60;99307.22;5094769;28;20642;-80